Time;durP1;ratioP1;P1;durP2;ratioP2;P2;SDS_P1;SDS_P2;PMS_P1;PMS_P2;Temp;Humidity;BMP_temperature;BMP_pressure;BME280_temperature;BME280_humidity;BME280_pressure;Samples;Min_cycle;Max_cycle;Signal;HPM_P1;HPM_P2
2022/08/11 00:00:34;;;;;;;1999.90;999.90;;;;;;;13.14;100.00;100557.22;5053593;28;20052;-51
2022/08/11 00:03:19;;;;;;;1999.90;999.90;;;;;;;12.97;100.00;100547.09;5053326;28;20044;-51
2022/08/11 00:06:04;;;;;;;1999.90;999.90;;;;;;;13.16;100.00;100558.06;5054794;28;20096;-51
2022/08/11 00:08:49;;;;;;;1999.90;999.90;;;;;;;13.09;100.00;100561.69;5053350;28;20094;-52
2022/08/11 00:11:37;;;;;;;1999.90;999.90;;;;;;;13.03;100.00;100556.56;5053762;28;20040;-51
2022/08/11 00:14:23;;;;;;;1999.90;999.90;;;;;;;13.05;100.00;100557.41;5051928;28;20167;-51
2022/08/11 00:17:11;;;;;;;1999.90;999.90;;;;;;;13.02;100.00;100555.72;5054354;28;20067;-51
2022/08/11 00:20:03;;;;;;;1999.90;999.90;;;;;;;12.99;100.00;100561.06;5053184;28;20143;-52
2022/08/11 00:22:49;;;;;;;1999.90;999.90;;;;;;;13.00;100.00;100554.03;5054903;28;20056;-52
2022/08/11 00:25:48;;;;;;;1999.90;999.90;;;;;;;13.02;100.00;100558.34;5052087;28;20126;-51
2022/08/11 00:28:35;;;;;;;1999.90;999.90;;;;;;;12.88;100.00;100543.81;5051754;28;20077;-51
2022/08/11 00:31:27;;;;;;;1999.90;999.90;;;;;;;12.90;100.00;100558.63;5052710;28;20138;-52
2022/08/11 00:34:13;;;;;;;1999.90;999.90;;;;;;;12.81;100.00;100551.84;5051121;28;20079;-51
2022/08/11 00:37:00;;;;;;;1999.90;999.90;;;;;;;12.77;100.00;100559.81;5056430;28;20192;-51
2022/08/11 00:39:50;;;;;;;1999.90;999.90;;;;;;;12.68;100.00;100549.53;5053448;28;20051;-51
2022/08/11 00:42:58;;;;;;;1999.90;999.90;;;;;;;12.84;100.00;100551.75;5054885;28;20054;-51
2022/08/11 00:46:05;;;;;;;1999.90;999.90;;;;;;;12.72;100.00;100554.66;5056858;28;20546;-52
2022/08/11 00:49:17;;;;;;;1999.90;999.90;;;;;;;12.58;100.00;100544.47;5050642;28;20141;-52
2022/08/11 00:52:24;;;;;;;1999.90;999.90;;;;;;;12.64;100.00;100553.94;5051658;28;20079;-51
2022/08/11 00:55:36;;;;;;;1999.90;999.90;;;;;;;12.69;100.00;100553.88;5050205;28;20063;-51
2022/08/11 00:58:39;;;;;;;1999.90;999.90;;;;;;;12.68;100.00;100554.78;5049220;28;20068;-51
2022/08/11 01:01:56;;;;;;;1999.90;999.90;;;;;;;12.61;100.00;100559.31;5049598;28;20052;-52
2022/08/11 01:05:12;;;;;;;1999.90;999.90;;;;;;;12.65;100.00;100558.31;5030329;28;20138;-51
2022/08/11 01:08:17;;;;;;;1999.90;999.90;;;;;;;12.63;100.00;100557.47;5050582;28;20050;-51
2022/08/11 01:11:05;;;;;;;1999.90;999.90;;;;;;;12.55;100.00;100554.16;5050904;28;20056;-51
2022/08/11 01:14:08;;;;;;;1999.90;999.90;;;;;;;12.47;100.00;100550.81;5053294;28;20384;-51
2022/08/11 01:17:25;;;;;;;1999.90;999.90;;;;;;;12.48;100.00;100555.16;5050938;28;20079;-51
2022/08/11 01:20:24;;;;;;;1999.90;999.90;;;;;;;12.48;100.00;100553.44;5050428;28;20102;-51
2022/08/11 01:23:15;;;;;;;1999.90;999.90;;;;;;;12.50;100.00;100556.88;5051657;28;20053;-51
2022/08/11 01:26:44;;;;;;;1999.90;999.90;;;;;;;12.37;100.00;100558.88;5051626;28;20045;-51
2022/08/11 01:29:50;;;;;;;1999.90;999.90;;;;;;;12.35;100.00;100558.06;5048906;28;20083;-51
2022/08/11 01:32:43;;;;;;;1999.90;999.90;;;;;;;12.33;100.00;100554.59;5050352;28;20048;-51
2022/08/11 01:35:37;;;;;;;1999.90;999.90;;;;;;;12.24;100.00;100549.53;5049857;28;20148;-51
2022/08/11 01:38:34;;;;;;;1999.90;999.90;;;;;;;12.05;100.00;100559.53;5054421;28;20056;-51
2022/08/11 01:45:06;;;;;;;1999.90;999.90;;;;;;;12.12;100.00;100562.91;5051813;28;20037;-51
2022/08/11 01:48:13;;;;;;;1999.90;999.90;;;;;;;12.13;100.00;100560.25;5052551;28;20914;-51
2022/08/11 01:51:07;;;;;;;1999.90;999.90;;;;;;;12.03;100.00;100561.34;5053127;28;20062;-50
2022/08/11 01:53:55;;;;;;;1999.90;999.90;;;;;;;11.96;100.00;100548.34;5055127;28;20075;-51
2022/08/11 01:56:58;;;;;;;1999.90;999.90;;;;;;;12.05;100.00;100556.03;5054356;28;20055;-52
2022/08/11 01:59:48;;;;;;;1999.90;999.90;;;;;;;11.99;100.00;100554.44;5055000;28;20064;-51
2022/08/11 02:02:52;;;;;;;1999.90;999.90;;;;;;;11.89;100.00;100558.09;5051721;28;20047;-51
2022/08/11 02:06:53;;;;;;;1999.90;999.90;;;;;;;11.80;100.00;100551.25;5052364;28;20058;-51
2022/08/11 02:09:17;;;;;;;1999.90;999.90;;;;;;;11.88;100.00;100548.50;5054815;28;20172;-51
2022/08/11 02:12:14;;;;;;;1999.90;999.90;;;;;;;11.90;100.00;100544.94;5052058;28;20048;-51
2022/08/11 02:15:05;;;;;;;1999.90;999.90;;;;;;;11.93;100.00;100549.28;5052196;28;20126;-51
2022/08/11 02:23:38;;;;;;;1999.90;999.90;;;;;;;11.91;100.00;100548.44;5054457;28;20067;-51
2022/08/11 02:25:11;;;;;;;1999.90;999.90;;;;;;;11.78;100.00;100534.63;5054410;28;20079;-52
2022/08/11 02:28:10;;;;;;;1999.90;999.90;;;;;;;11.89;100.00;100551.09;5056017;28;20124;-51
2022/08/11 02:34:23;;;;;;;1999.90;999.90;;;;;;;11.88;100.00;100553.75;5061410;28;21612;-50
2022/08/11 02:37:33;;;;;;;1999.90;999.90;;;;;;;11.86;100.00;100552.91;5057214;28;20040;-51
2022/08/11 02:40:30;;;;;;;1999.90;999.90;;;;;;;11.82;100.00;100553.81;5056576;28;20383;-50
2022/08/11 02:43:47;;;;;;;1999.90;999.90;;;;;;;11.81;100.00;100557.34;5060362;28;20082;-50
2022/08/11 02:46:47;;;;;;;1999.90;999.90;;;;;;;11.78;100.00;100536.41;5049742;28;20076;-51
2022/08/11 02:49:55;;;;;;;1999.90;999.90;;;;;;;11.80;100.00;100553.84;5058295;28;20137;-51
2022/08/11 02:53:02;;;;;;;1999.90;999.90;;;;;;;11.96;100.00;100549.22;5053271;28;20135;-51
2022/08/11 02:55:49;;;;;;;1999.90;999.90;;;;;;;11.98;100.00;100546.56;5056351;28;20461;-51
2022/08/11 03:02:30;;;;;;;1999.90;999.90;;;;;;;12.03;100.00;100549.97;5054339;28;20083;-51
2022/08/11 03:05:23;;;;;;;1999.90;999.90;;;;;;;12.08;100.00;100559.47;5053158;28;20126;-51
2022/08/11 03:08:26;;;;;;;;;;;;;;;12.02;100.00;100553.47;5053865;28;20049;-51
2022/08/11 03:17:49;;;;;;;1999.90;999.90;;;;;;;11.95;100.00;100552.72;5050799;28;20051;-51
2022/08/11 03:20:50;;;;;;;1999.90;999.90;;;;;;;11.95;100.00;100541.38;5050808;28;20635;-52
2022/08/11 03:23:52;;;;;;;1999.90;999.90;;;;;;;11.97;100.00;100552.72;5051574;28;20122;-51
2022/08/11 03:26:37;;;;;;;1999.90;999.90;;;;;;;11.91;100.00;100551.06;5052285;28;20059;-51
2022/08/11 03:29:28;;;;;;;1999.90;999.90;;;;;;;11.82;100.00;100553.81;5050321;28;20037;-51
2022/08/11 03:32:29;;;;;;;1999.90;999.90;;;;;;;11.93;100.00;100558.03;5048125;28;20087;-51
2022/08/11 03:35:17;;;;;;;1999.90;999.90;;;;;;;11.95;100.00;100559.75;5050132;28;20064;-51
2022/08/11 03:38:08;;;;;;;1999.90;999.90;;;;;;;11.95;100.00;100557.13;5050373;28;20828;-51
2022/08/11 03:44:34;;;;;;;1999.90;999.90;;;;;;;11.90;100.00;100550.19;5050707;28;20129;-51
2022/08/11 03:47:43;;;;;;;1999.90;999.90;;;;;;;11.85;100.00;100552.03;5050393;28;20045;-51
2022/08/11 03:51:07;;;;;;;1999.90;999.90;;;;;;;11.87;100.00;100552.03;5052999;28;20057;-51
2022/08/11 03:54:21;;;;;;;1999.90;999.90;;;;;;;11.83;100.00;100550.28;5054724;28;20045;-51
2022/08/11 03:57:24;;;;;;;;;;;;;;;11.95;100.00;100552.72;5053495;28;20442;-50
2022/08/11 04:00:22;;;;;;;1999.90;999.90;;;;;;;11.82;100.00;100548.56;5054146;28;19928;-51
2022/08/11 04:03:34;;;;;;;1999.90;999.90;;;;;;;11.88;100.00;100551.97;5053815;28;20101;-51
2022/08/11 04:06:27;;;;;;;1999.90;999.90;;;;;;;11.96;100.00;100556.22;5054627;28;20110;-51
2022/08/11 04:09:52;;;;;;;1999.90;999.90;;;;;;;12.03;100.00;100553.47;5057484;28;20041;-52
2022/08/11 04:13:13;;;;;;;1999.90;999.90;;;;;;;12.02;100.00;100551.72;5054784;28;20625;-51
2022/08/11 04:16:05;;;;;;;1999.90;999.90;;;;;;;12.12;100.00;100548.03;5056160;28;20052;-51
2022/08/11 04:19:09;;;;;;;1999.90;999.90;;;;;;;12.22;100.00;100547.81;5057486;28;20384;-51
2022/08/11 04:22:12;;;;;;;1999.90;999.90;;;;;;;12.20;100.00;100541.75;5057478;28;20075;-51
2022/08/11 04:25:03;;;;;;;1999.90;999.90;;;;;;;12.31;100.00;100552.91;5053069;28;20049;-51
2022/08/11 04:28:22;;;;;;;1999.90;999.90;;;;;;;12.29;100.00;100558.19;5053584;28;20045;-51
2022/08/11 04:31:32;;;;;;;1999.90;999.90;;;;;;;12.55;100.00;100554.16;5053185;28;20097;-51
2022/08/11 04:34:34;;;;;;;1999.90;999.90;;;;;;;12.78;100.00;100562.41;5055941;28;20079;-51
2022/08/11 04:37:33;;;;;;;1999.90;999.90;;;;;;;13.15;100.00;100547.53;5050757;28;20984;-51
2022/08/11 04:40:43;;;;;;;1999.90;999.90;;;;;;;13.47;100.00;100552.91;5050918;28;21063;-50
2022/08/11 04:43:47;;;;;;;1999.90;999.90;;;;;;;13.73;100.00;100560.16;5051171;28;20620;-52
2022/08/11 04:46:53;;;;;;;1999.90;999.90;;;;;;;14.19;100.00;100555.41;5052581;28;20098;-51
2022/08/11 05:03:21;;;;;;;1999.90;999.90;;;;;;;16.33;100.00;100552.91;5029707;28;20106;-50
2022/08/11 05:06:35;;;;;;;1999.90;999.90;;;;;;;16.85;100.00;100552.75;5053200;28;20795;-51
2022/08/11 05:09:33;;;;;;;1999.90;999.90;;;;;;;17.22;100.00;100555.66;5052863;28;20053;-52
2022/08/11 05:12:42;;;;;;;1999.90;999.90;;;;;;;17.47;100.00;100552.81;5052620;28;20110;-52
2022/08/11 05:34:53;;;;;;;1999.90;999.90;;;;;;;18.50;100.00;100576.69;5056702;28;20072;-52
2022/08/11 05:56:19;;;;;;;1999.90;999.90;;;;;;;19.43;100.00;100582.84;5050223;28;20079;-53
2022/08/11 05:59:04;;;;;;;1999.90;999.90;;;;;;;19.93;100.00;100584.81;5052312;28;20080;-52
2022/08/11 06:01:50;;;;;;;1999.90;999.90;;;;;;;20.23;100.00;100584.13;5052846;28;20103;-52
2022/08/11 06:04:36;;;;;;;1999.90;999.90;;;;;;;20.19;100.00;100587.91;5054448;28;20079;-53
2022/08/11 06:07:28;;;;;;;1999.90;999.90;;;;;;;20.60;100.00;100580.38;5055050;28;20503;-53
2022/08/11 06:10:13;;;;;;;1999.90;999.90;;;;;;;20.71;100.00;100580.66;5051454;28;20163;-54
2022/08/11 06:13:00;;;;;;;1999.90;999.90;;;;;;;20.61;100.00;100582.13;5054582;28;20053;-54
2022/08/11 06:15:50;;;;;;;1999.90;999.90;;;;;;;20.51;100.00;100588.88;5054099;28;20555;-53
2022/08/11 06:18:35;;;;;;;1999.90;999.90;;;;;;;21.10;100.00;100594.50;5055971;28;20048;-53
2022/08/11 06:21:21;;;;;;;1999.90;999.90;;;;;;;21.44;100.00;100588.97;5057522;28;20087;-53
2022/08/11 06:24:14;;;;;;;1999.90;999.90;;;;;;;21.41;100.00;100578.50;5055693;28;20133;-54
2022/08/11 06:26:59;;;;;;;1999.90;999.90;;;;;;;21.32;100.00;100587.03;5045941;28;21353;-54
2022/08/11 06:29:49;;;;;;;1999.90;999.90;;;;;;;21.86;100.00;100583.88;5053253;28;20064;-54
2022/08/11 06:32:35;;;;;;;1999.90;999.90;;;;;;;21.87;100.00;100582.94;5048426;28;20156;-53
2022/08/11 06:35:37;;;;;;;1999.90;999.90;;;;;;;21.87;100.00;100585.59;5049878;28;20108;-54
2022/08/11 06:38:45;;;;;;;1999.90;999.90;;;;;;;22.67;100.00;100586.09;5056760;28;20431;-54
2022/08/11 06:41:45;;;;;;;1999.90;999.90;;;;;;;22.58;100.00;100583.03;5056074;28;20037;-54
2022/08/11 06:44:38;;;;;;;1999.90;999.90;;;;;;;22.32;100.00;100565.97;5034316;28;20110;-54
2022/08/11 06:47:24;;;;;;;1999.90;999.90;;;;;;;23.26;100.00;100576.06;5052253;28;20084;-54
2022/08/11 06:53:16;;;;;;;1999.90;999.90;;;;;;;23.19;100.00;100578.28;5052332;28;20056;-54
2022/08/11 07:02:19;;;;;;;1999.90;999.90;;;;;;;24.08;95.98;100566.97;5055744;28;20060;-55
2022/08/11 07:05:17;;;;;;;1999.90;999.90;;;;;;;23.89;96.43;100569.22;5055083;28;20380;-55
2022/08/11 07:31:05;;;;;;;1999.90;999.90;;;;;;;24.18;84.43;100552.00;5054151;28;20581;-54
2022/08/11 07:33:55;;;;;;;1999.90;999.90;;;;;;;24.36;82.02;100552.50;5055330;28;20101;-54
2022/08/11 07:36:52;;;;;;;1999.90;999.90;;;;;;;24.27;83.59;100556.66;5054529;28;20178;-54
2022/08/11 07:39:38;;;;;;;1999.90;999.90;;;;;;;24.57;80.85;100563.53;5053600;28;20104;-54
2022/08/11 07:42:27;;;;;;;1999.90;999.90;;;;;;;24.92;80.90;100557.44;5050723;28;20102;-55
2022/08/11 07:54:25;;;;;;;1999.90;999.90;;;;;;;25.39;76.04;100553.09;5059438;28;20114;-54
2022/08/11 08:18:39;;;;;;;1999.90;999.90;;;;;;;26.87;79.99;100553.19;5056390;28;20060;-55
2022/08/11 08:21:24;;;;;;;1999.90;999.90;;;;;;;25.72;73.84;100548.81;5058406;28;20055;-53
2022/08/11 08:24:10;;;;;;;1999.90;999.90;;;;;;;26.86;78.05;100544.28;5060533;28;20533;-55
2022/08/11 08:26:58;;;;;;;1999.90;999.90;;;;;;;26.97;72.25;100540.72;5058762;28;20051;-54
2022/08/11 08:32:50;;;;;;;1999.90;999.90;;;;;;;26.63;73.27;100538.09;5052595;28;20059;-54
2022/08/11 08:35:36;;;;;;;1999.90;999.90;;;;;;;26.80;69.90;100534.03;5054258;28;20048;-55
2022/08/11 08:38:20;;;;;;;1999.90;999.90;;;;;;;26.43;71.62;100541.50;5055599;28;20369;-54
2022/08/11 08:41:06;;;;;;;1999.90;999.90;;;;;;;27.35;70.54;100524.13;5053575;28;20694;-54
2022/08/11 08:43:54;;;;;;;1999.90;999.90;;;;;;;26.87;67.86;100537.06;5055788;28;20050;-56
2022/08/11 08:46:43;;;;;;;1999.90;999.90;;;;;;;26.54;68.23;100542.38;5050460;28;20056;-55
2022/08/11 08:49:35;;;;;;;1999.90;999.90;;;;;;;25.71;74.07;100531.03;5052755;28;20127;-54
2022/08/11 08:52:23;;;;;;;1999.90;999.90;;;;;;;26.25;71.83;100533.06;5056102;28;20086;-54
2022/08/11 08:55:15;;;;;;;1999.90;999.90;;;;;;;26.64;69.26;100522.81;5057164;28;20386;-55
2022/08/11 08:58:01;;;;;;;1999.90;999.90;;;;;;;26.56;69.69;100521.63;5051790;28;20053;-54
2022/08/11 09:00:50;;;;;;;1999.90;999.90;;;;;;;27.41;71.20;100517.38;5054361;28;20053;-54
2022/08/11 09:03:37;;;;;;;1999.90;999.90;;;;;;;26.97;64.66;100512.00;5052768;28;20050;-54
2022/08/11 09:06:21;;;;;;;1999.90;999.90;;;;;;;26.96;67.34;100515.66;5052484;28;20169;-54
2022/08/11 09:09:07;;;;;;;1999.90;999.90;;;;;;;25.40;70.95;100525.31;5048083;28;20071;-55
2022/08/11 09:11:53;;;;;;;1999.90;999.90;;;;;;;26.79;68.03;100522.44;5053565;28;20133;-55
2022/08/11 09:17:46;;;;;;;1999.90;999.90;;;;;;;27.69;64.44;100518.56;5056531;28;20063;-53
2022/08/11 09:20:34;;;;;;;1999.90;999.90;;;;;;;27.42;64.34;100519.91;5054206;28;20052;-53
2022/08/11 09:29:28;;;;;;;1999.90;999.90;;;;;;;27.56;65.08;100507.13;5057705;28;20048;-55
2022/08/11 09:32:13;;;;;;;1999.90;999.90;;;;;;;27.35;64.17;100502.59;5061116;28;20048;-55
2022/08/11 09:35:01;;;;;;;1999.90;999.90;;;;;;;27.05;62.03;100503.31;5060216;28;20040;-55
2022/08/11 09:40:51;;;;;;;1999.90;999.90;;;;;;;27.87;58.34;100492.78;5058366;28;20574;-55
2022/08/11 09:46:45;;;;;;;1999.90;999.90;;;;;;;27.66;56.96;100497.31;5058882;28;20447;-55
2022/08/11 09:49:31;;;;;;;1999.90;999.90;;;;;;;27.93;56.96;100503.03;5058677;28;20111;-55
2022/08/11 09:52:17;;;;;;;1999.90;999.90;;;;;;;27.75;57.74;100499.19;5062173;28;20093;-54
2022/08/11 09:55:09;;;;;;;1999.90;999.90;;;;;;;27.42;57.34;100495.72;5054835;28;20068;-55
2022/08/11 09:58:15;;;;;;;1999.90;999.90;;;;;;;26.84;58.99;100483.56;5059340;28;20057;-53
2022/08/11 10:01:01;;;;;;;1999.90;999.90;;;;;;;26.13;59.92;100496.44;5062739;28;20049;-55
2022/08/11 10:03:46;;;;;;;1999.90;999.90;;;;;;;25.16;62.46;100498.53;5058712;28;20143;-54
2022/08/11 10:09:43;;;;;;;1999.90;999.90;;;;;;;26.37;60.54;100494.50;5058343;28;20052;-53
2022/08/11 10:12:46;;;;;;;1999.90;999.90;;;;;;;26.20;60.81;100486.97;5056289;28;20477;-54
2022/08/11 10:15:37;;;;;;;1999.90;999.90;;;;;;;26.65;59.76;100489.59;5056712;28;20115;-55
2022/08/11 10:18:41;;;;;;;1999.90;999.90;;;;;;;25.95;57.72;100475.47;5058182;28;20064;-55
2022/08/11 10:21:34;;;;;;;1999.90;999.90;;;;;;;27.10;56.66;100481.41;5051058;28;20404;-54
2022/08/11 10:27:23;;;;;;;1999.90;999.90;;;;;;;27.38;56.65;100467.38;5056475;28;20075;-54
2022/08/11 10:36:18;;;;;;;1999.90;999.90;;;;;;;27.94;56.22;100458.97;5053873;28;20047;-54
2022/08/11 10:39:04;;;;;;;1999.90;999.90;;;;;;;26.42;58.20;100468.16;5057988;28;20051;-54
2022/08/11 10:44:54;;;;;;;1999.90;999.90;;;;;;;26.64;60.95;100458.34;5061643;28;20051;-55
2022/08/11 10:47:39;;;;;;;1999.90;999.90;;;;;;;26.34;58.58;100459.84;5058909;28;20051;-55
2022/08/11 10:59:42;;;;;;;1999.90;999.90;;;;;;;24.55;69.08;100452.16;5057679;28;20071;-55
2022/08/11 11:02:28;;;;;;;1999.90;999.90;;;;;;;26.04;62.09;100452.44;5059509;28;20033;-54
2022/08/11 11:05:23;;;;;;;1999.90;999.90;;;;;;;26.27;60.64;100445.22;5058396;28;20076;-55
2022/08/11 11:11:19;;;;;;;1999.90;999.90;;;;;;;26.15;60.83;100444.38;5056508;28;20052;-54
2022/08/11 11:20:19;;;;;;;1999.90;999.90;;;;;;;24.98;63.07;100446.28;5057941;28;20041;-54
2022/08/11 11:23:25;;;;;;;1999.90;999.90;;;;;;;24.62;61.74;100440.88;5053314;28;20049;-53
2022/08/11 11:26:40;;;;;;;1999.90;999.90;;;;;;;26.46;60.99;100442.75;5054229;28;20045;-53
2022/08/11 11:29:34;;;;;;;1999.90;999.90;;;;;;;25.83;62.34;100434.34;5055586;28;20057;-54
2022/08/11 11:32:40;;;;;;;1999.90;999.90;;;;;;;24.84;63.05;100431.25;5055111;28;20091;-54
2022/08/11 11:36:00;;;;;;;1999.90;999.90;;;;;;;24.70;63.95;100430.47;5053669;28;20107;-54
2022/08/11 11:38:45;;;;;;;1999.90;999.90;;;;;;;24.17;64.11;100427.16;5054014;28;20098;-55
2022/08/11 11:41:30;;;;;;;1999.90;999.90;;;;;;;24.25;65.61;100418.59;5055187;28;20431;-54
2022/08/11 11:44:16;;;;;;;1999.90;999.90;;;;;;;24.32;65.84;100416.34;5054216;28;21086;-55
2022/08/11 11:47:01;;;;;;;1999.90;999.90;;;;;;;25.92;63.07;100410.47;5055759;28;20071;-55
2022/08/11 11:49:47;;;;;;;1999.90;999.90;;;;;;;26.54;61.15;100407.22;5047946;28;20575;-55
2022/08/11 11:52:33;;;;;;;1999.90;999.90;;;;;;;27.08;60.59;100398.22;5057799;28;20047;-55
2022/08/11 11:55:21;;;;;;;1999.90;999.90;;;;;;;27.56;58.58;100388.78;5057799;28;20048;-55
2022/08/11 12:01:16;;;;;;;1999.90;999.90;;;;;;;26.56;62.84;100392.69;5048751;28;20055;-55
2022/08/11 12:04:06;;;;;;;1999.90;999.90;;;;;;;25.86;60.50;100398.41;5053490;28;20065;-56
2022/08/11 12:08:08;;;;;;;1999.90;999.90;;;;;;;24.80;62.19;100394.97;5051915;28;20098;-55
2022/08/11 12:09:58;;;;;;;1999.90;999.90;;;;;;;24.97;67.60;100399.91;5054801;28;20563;-54
2022/08/11 12:15:49;;;;;;;1999.90;999.90;;;;;;;24.68;63.52;100378.84;5053515;28;20079;-53
2022/08/11 12:18:35;;;;;;;1999.90;999.90;;;;;;;24.18;63.47;100378.06;5055791;28;20704;-55
2022/08/11 12:21:20;;;;;;;1999.90;999.90;;;;;;;25.43;64.46;100377.63;5059594;28;20133;-55
2022/08/11 12:27:29;;;;;;;1999.90;999.90;;;;;;;26.54;61.78;100359.75;5027496;28;20562;-55
2022/08/11 12:30:13;;;;;;;1999.90;999.90;;;;;;;26.98;59.99;100354.31;5047564;28;20795;-55
2022/08/11 12:32:58;;;;;;;1999.90;999.90;;;;;;;26.35;62.11;100354.16;5052917;28;20051;-54
2022/08/11 12:35:43;;;;;;;1999.90;999.90;;;;;;;25.28;60.88;100360.88;5051612;28;20144;-55
2022/08/11 12:38:29;;;;;;;1999.90;999.90;;;;;;;25.70;60.40;100357.63;5051318;28;20075;-54
2022/08/11 12:47:21;;;;;;;1999.90;999.90;;;;;;;25.00;60.90;100343.41;5048891;28;20048;-55
2022/08/11 12:53:11;;;;;;;1999.90;999.90;;;;;;;26.36;60.73;100345.13;5050162;28;20060;-54
2022/08/11 13:05:20;;;;;;;1999.90;999.90;;;;;;;25.83;62.40;100324.38;5052196;28;20044;-55
2022/08/11 13:08:06;;;;;;;1999.90;999.90;;;;;;;26.21;61.22;100335.66;5056170;28;20162;-54
2022/08/11 13:13:57;;;;;;;1999.90;999.90;;;;;;;26.22;57.28;100315.88;5053241;28;20056;-54
2022/08/11 13:19:48;;;;;;;1999.90;999.90;;;;;;;26.51;59.91;100324.22;5055845;28;20045;-54
2022/08/11 13:22:32;;;;;;;1999.90;999.90;;;;;;;25.56;62.02;100324.72;5055074;28;20507;-55
2022/08/11 13:25:20;;;;;;;1999.90;999.90;;;;;;;25.03;59.98;100329.78;5056833;28;20041;-53
2022/08/11 13:28:05;;;;;;;1999.90;999.90;;;;;;;25.11;60.01;100324.66;5050570;28;20045;-54
2022/08/11 13:33:54;;;;;;;1999.90;999.90;;;;;;;25.03;61.40;100320.88;5053280;28;20384;-54
2022/08/11 13:36:40;;;;;;;1999.90;999.90;;;;;;;24.80;61.45;100317.28;5051930;28;20064;-54
2022/08/11 13:39:28;;;;;;;1999.90;999.90;;;;;;;25.37;59.25;100305.72;5049053;28;20547;-53
2022/08/11 13:42:16;;;;;;;1999.90;999.90;;;;;;;25.47;58.48;100303.16;5051382;28;20138;-53
2022/08/11 13:45:02;;;;;;;1999.90;999.90;;;;;;;25.43;56.36;100305.22;5051421;28;20079;-54
2022/08/11 13:47:48;;;;;;;1999.90;999.90;;;;;;;25.31;57.50;100301.69;5053032;28;20045;-54
2022/08/11 13:53:38;;;;;;;1999.90;999.90;;;;;;;25.46;55.78;100290.72;5050772;28;20056;-54
2022/08/11 13:56:23;;;;;;;1999.90;999.90;;;;;;;25.60;57.16;100285.97;5049895;28;20090;-52
2022/08/11 13:59:09;;;;;;;1999.90;999.90;;;;;;;25.66;57.51;100284.63;5050378;28;20040;-53
2022/08/11 14:01:59;;;;;;;1999.90;999.90;;;;;;;26.01;60.90;100283.63;5050473;28;20092;-52
2022/08/11 14:04:54;;;;;;;1999.90;999.90;;;;;;;25.59;54.75;100281.56;5044560;28;20060;-54
2022/08/11 14:07:46;;;;;;;1999.90;999.90;;;;;;;25.80;56.00;100275.44;5050791;28;20051;-53
2022/08/11 14:10:34;;;;;;;1999.90;999.90;;;;;;;25.84;57.00;100272.44;5047842;28;20045;-54
2022/08/11 14:13:37;;;;;;;1999.90;999.90;;;;;;;25.82;56.94;100274.38;5048998;28;20103;-52
2022/08/11 14:16:29;;;;;;;1999.90;999.90;;;;;;;25.83;57.30;100268.03;5051197;28;20052;-54
2022/08/11 14:19:14;;;;;;;;;;;;;;;25.25;59.20;100277.19;5056124;28;20079;-52
2022/08/11 14:22:07;;;;;;;1999.90;999.90;;;;;;;24.92;58.15;100278.81;5059190;28;19964;-52
2022/08/11 14:24:52;;;;;;;1999.90;999.90;;;;;;;24.63;58.43;100268.53;5056266;28;20043;-53
2022/08/11 14:27:37;;;;;;;1999.90;999.90;;;;;;;24.83;58.12;100271.50;5053133;28;20097;-54
2022/08/11 14:33:25;;;;;;;1999.90;999.90;;;;;;;25.32;57.94;100265.03;5059849;28;20078;-52
2022/08/11 14:36:10;;;;;;;1999.90;999.90;;;;;;;25.41;59.62;100262.47;5059669;28;20056;-53
2022/08/11 14:38:55;;;;;;;1999.90;999.90;;;;;;;25.41;57.84;100241.03;5061795;28;20101;-54
2022/08/11 14:47:54;;;;;;;1999.90;999.90;;;;;;;25.18;56.79;100247.34;5059923;28;20036;-53
2022/08/11 14:50:39;;;;;;;1999.90;999.90;;;;;;;25.26;54.83;100254.78;5061497;28;20096;-53
2022/08/11 14:53:24;;;;;;;1999.90;999.90;;;;;;;25.17;58.37;100251.84;5056599;28;20055;-53
2022/08/11 14:59:13;;;;;;;1999.90;999.90;;;;;;;25.31;57.09;100256.13;5061238;28;20051;-52
2022/08/11 15:05:04;;;;;;;1999.90;999.90;;;;;;;25.05;54.53;100254.63;5056428;28;21575;-52
2022/08/11 15:07:51;;;;;;;1999.90;999.90;;;;;;;25.20;54.81;100264.16;5058521;28;20537;-52
2022/08/11 15:10:36;;;;;;;1999.90;999.90;;;;;;;25.32;54.44;100257.00;5055893;28;20079;-53
2022/08/11 15:13:20;;;;;;;1999.90;999.90;;;;;;;25.26;56.66;100262.84;5055950;28;20037;-52
2022/08/11 15:19:09;;;;;;;1999.90;999.90;;;;;;;25.32;55.35;100257.00;5053150;28;20167;-52
2022/08/11 15:24:58;;;;;;;1999.90;999.90;;;;;;;25.38;55.46;100265.41;5055580;28;20063;-53
2022/08/11 15:37:28;;;;;;;1999.90;999.90;;;;;;;25.39;55.09;100277.81;5053980;28;20537;-53
2022/08/11 15:46:36;;;;;;;1999.90;999.90;;;;;;;23.75;78.28;100306.25;5052574;28;20090;-53
2022/08/11 15:49:33;;;;;;;1999.90;999.90;;;;;;;23.02;81.30;100327.44;5052782;28;20816;-54
2022/08/11 15:52:22;;;;;;;1999.90;999.90;;;;;;;22.80;85.08;100331.53;5065719;28;20404;-53
2022/08/11 15:55:07;;;;;;;1999.90;999.90;;;;;;;22.43;87.62;100327.81;5052628;28;20052;-52
2022/08/11 16:04:13;;;;;;;1999.90;999.90;;;;;;;21.77;94.94;100347.16;5053644;28;20103;-54
2022/08/11 16:07:10;;;;;;;1999.90;999.90;;;;;;;21.78;95.81;100335.59;5051126;28;20161;-55
2022/08/11 16:10:07;;;;;;;1999.90;999.90;;;;;;;21.69;96.81;100345.84;5055489;28;20080;-54
2022/08/11 16:19:00;;;;;;;1999.90;999.90;;;;;;;21.60;97.83;100341.09;5054719;28;20040;-54
2022/08/11 16:21:49;;;;;;;1999.90;999.90;;;;;;;21.07;100.00;100325.72;5055488;28;20118;-56
2022/08/11 16:24:37;;;;;;;1999.90;999.90;;;;;;;20.82;100.00;100334.31;5052806;28;20047;-55
2022/08/11 16:27:22;;;;;;;1999.90;999.90;;;;;;;20.65;100.00;100351.28;5052094;28;20249;-54
2022/08/11 16:30:09;;;;;;;1999.90;999.90;;;;;;;20.46;100.00;100348.78;5052624;28;20041;-54
2022/08/11 16:32:56;;;;;;;1999.90;999.90;;;;;;;20.38;100.00;100348.38;5050404;28;20087;-54
2022/08/11 16:38:48;;;;;;;1999.90;999.90;;;;;;;20.58;100.00;100356.09;5052564;28;20082;-55
2022/08/11 16:47:45;;;;;;;1999.90;999.90;;;;;;;20.65;100.00;100338.81;5053413;28;20068;-55
2022/08/11 16:50:29;;;;;;;1999.90;999.90;;;;;;;20.47;100.00;100339.84;5051662;28;20395;-52
2022/08/11 16:53:16;;;;;;;1999.90;999.90;;;;;;;20.49;100.00;100330.00;5045665;28;20064;-55
2022/08/11 16:56:02;;;;;;;1999.90;999.90;;;;;;;20.17;100.00;100326.50;5048144;28;20419;-53
2022/08/11 17:02:10;;;;;;;1999.90;999.90;;;;;;;20.30;100.00;100325.72;5054378;28;20040;-53
2022/08/11 17:14:24;;;;;;;1999.90;999.90;;;;;;;20.20;100.00;100318.38;5055265;28;20174;-54
2022/08/11 17:17:15;;;;;;;1999.90;999.90;;;;;;;20.18;99.42;100313.16;5063373;28;20094;-54
2022/08/11 17:20:09;;;;;;;1999.90;999.90;;;;;;;20.51;97.46;100315.69;5059228;28;20185;-53
2022/08/11 17:25:58;;;;;;;1999.90;999.90;;;;;;;20.28;95.23;100294.88;5060505;28;20109;-53
2022/08/11 17:28:46;;;;;;;1999.90;999.90;;;;;;;20.35;93.08;100288.22;5050542;28;20200;-55
2022/08/11 17:37:39;;;;;;;1999.90;999.90;;;;;;;20.52;91.63;100285.47;5057836;28;20130;-53
2022/08/11 17:40:24;;;;;;;1999.90;999.90;;;;;;;20.07;91.92;100279.16;5064080;28;20063;-54
2022/08/11 17:49:19;;;;;;;1999.90;999.90;;;;;;;20.04;92.84;100281.16;5050824;28;20048;-54
2022/08/11 18:01:20;;;;;;;1999.90;999.90;;;;;;;20.08;96.72;100282.69;5060458;28;20053;-53
2022/08/11 18:04:06;;;;;;;1999.90;999.90;;;;;;;19.91;98.90;100288.09;5066796;28;20114;-52